sensor_id;sensor_type;location;lat;lon;timestamp;P1;durP1;ratioP1;P2;durP2;ratioP2
72404;SDS011;60395;52.020;113.548;2022-10-16T00:01:08;2.28;;;1.00;;
72404;SDS011;60395;52.020;113.548;2022-10-16T00:04:13;2.72;;;1.33;;
72404;SDS011;60395;52.020;113.548;2022-10-16T00:07:16;11.23;;;2.67;;
72404;SDS011;60395;52.020;113.548;2022-10-16T00:10:20;7.03;;;3.15;;
72404;SDS011;60395;52.020;113.548;2022-10-16T00:13:23;10.50;;;3.25;;
72404;SDS011;60395;52.020;113.548;2022-10-16T00:16:27;9.57;;;2.40;;
72404;SDS011;60395;52.020;113.548;2022-10-16T00:19:31;3.30;;;1.58;;
72404;SDS011;60395;52.020;113.548;2022-10-16T00:22:34;4.07;;;1.40;;
72404;SDS011;60395;52.020;113.548;2022-10-16T00:25:37;5.43;;;1.70;;
72404;SDS011;60395;52.020;113.548;2022-10-16T00:28:40;3.85;;;1.50;;
72404;SDS011;60395;52.020;113.548;2022-10-16T00:31:44;2.17;;;1.00;;
72404;SDS011;60395;52.020;113.548;2022-10-16T00:34:47;3.22;;;1.52;;
72404;SDS011;60395;52.020;113.548;2022-10-16T00:37:50;1.10;;;0.60;;
72404;SDS011;60395;52.020;113.548;2022-10-16T00:40:53;1.48;;;0.98;;
72404;SDS011;60395;52.020;113.548;2022-10-16T00:43:57;7.25;;;3.42;;
72404;SDS011;60395;52.020;113.548;2022-10-16T00:47:02;5.20;;;1.92;;
72404;SDS011;60395;52.020;113.548;2022-10-16T00:53:29;2.10;;;0.93;;
72404;SDS011;60395;52.020;113.548;2022-10-16T00:56:33;2.70;;;1.30;;
72404;SDS011;60395;52.020;113.548;2022-10-16T00:59:38;2.35;;;1.15;;
72404;SDS011;60395;52.020;113.548;2022-10-16T01:02:43;1.83;;;0.82;;
72404;SDS011;60395;52.020;113.548;2022-10-16T01:05:49;3.88;;;1.23;;
72404;SDS011;60395;52.020;113.548;2022-10-16T01:19:14;1.25;;;0.77;;
72404;SDS011;60395;52.020;113.548;2022-10-16T01:22:23;2.17;;;0.77;;
72404;SDS011;60395;52.020;113.548;2022-10-16T01:29:26;2.17;;;1.08;;
72404;SDS011;60395;52.020;113.548;2022-10-16T01:32:33;5.80;;;2.33;;
72404;SDS011;60395;52.020;113.548;2022-10-16T01:35:46;3.60;;;1.40;;
72404;SDS011;60395;52.020;113.548;2022-10-16T01:38:55;2.35;;;0.90;;
72404;SDS011;60395;52.020;113.548;2022-10-16T01:42:09;4.05;;;1.77;;
72404;SDS011;60395;52.020;113.548;2022-10-16T01:45:16;3.08;;;1.42;;
72404;SDS011;60395;52.020;113.548;2022-10-16T01:48:21;4.43;;;1.92;;
72404;SDS011;60395;52.020;113.548;2022-10-16T01:51:26;9.23;;;2.33;;
72404;SDS011;60395;52.020;113.548;2022-10-16T01:54:31;2.33;;;1.33;;
72404;SDS011;60395;52.020;113.548;2022-10-16T01:57:38;4.60;;;2.15;;
72404;SDS011;60395;52.020;113.548;2022-10-16T02:00:45;5.78;;;2.00;;
72404;SDS011;60395;52.020;113.548;2022-10-16T02:03:52;2.15;;;0.93;;
72404;SDS011;60395;52.020;113.548;2022-10-16T02:06:58;1.70;;;0.90;;
72404;SDS011;60395;52.020;113.548;2022-10-16T02:10:02;2.13;;;0.55;;
72404;SDS011;60395;52.020;113.548;2022-10-16T02:13:10;1.52;;;0.68;;
72404;SDS011;60395;52.020;113.548;2022-10-16T02:19:24;1.80;;;0.80;;
72404;SDS011;60395;52.020;113.548;2022-10-16T02:22:34;1.88;;;0.68;;
72404;SDS011;60395;52.020;113.548;2022-10-16T02:25:41;2.95;;;0.77;;
72404;SDS011;60395;52.020;113.548;2022-10-16T02:28:50;3.33;;;0.82;;
72404;SDS011;60395;52.020;113.548;2022-10-16T02:31:58;1.38;;;0.80;;
72404;SDS011;60395;52.020;113.548;2022-10-16T02:35:04;3.42;;;1.17;;
72404;SDS011;60395;52.020;113.548;2022-10-16T02:38:08;1.45;;;0.70;;
72404;SDS011;60395;52.020;113.548;2022-10-16T02:41:13;1.45;;;0.60;;
72404;SDS011;60395;52.020;113.548;2022-10-16T02:44:16;2.43;;;0.80;;
72404;SDS011;60395;52.020;113.548;2022-10-16T02:47:20;5.65;;;1.58;;
72404;SDS011;60395;52.020;113.548;2022-10-16T02:50:23;4.68;;;1.38;;
72404;SDS011;60395;52.020;113.548;2022-10-16T02:53:27;1.13;;;0.60;;
72404;SDS011;60395;52.020;113.548;2022-10-16T02:56:30;2.75;;;0.80;;
72404;SDS011;60395;52.020;113.548;2022-10-16T02:59:33;3.08;;;0.90;;
72404;SDS011;60395;52.020;113.548;2022-10-16T03:02:36;2.38;;;0.88;;
72404;SDS011;60395;52.020;113.548;2022-10-16T03:05:39;4.57;;;1.45;;
72404;SDS011;60395;52.020;113.548;2022-10-16T03:08:43;2.92;;;0.85;;
72404;SDS011;60395;52.020;113.548;2022-10-16T03:11:46;4.15;;;1.23;;
72404;SDS011;60395;52.020;113.548;2022-10-16T03:14:49;2.17;;;1.00;;
72404;SDS011;60395;52.020;113.548;2022-10-16T03:17:52;2.42;;;1.10;;
72404;SDS011;60395;52.020;113.548;2022-10-16T03:20:55;3.63;;;0.85;;
72404;SDS011;60395;52.020;113.548;2022-10-16T03:23:59;2.17;;;0.60;;
72404;SDS011;60395;52.020;113.548;2022-10-16T03:27:03;3.77;;;1.50;;
72404;SDS011;60395;52.020;113.548;2022-10-16T03:30:06;4.00;;;1.90;;
72404;SDS011;60395;52.020;113.548;2022-10-16T03:33:09;2.28;;;1.30;;
72404;SDS011;60395;52.020;113.548;2022-10-16T03:36:13;1.80;;;1.00;;
72404;SDS011;60395;52.020;113.548;2022-10-16T03:39:16;3.30;;;1.50;;
72404;SDS011;60395;52.020;113.548;2022-10-16T03:42:19;3.75;;;1.00;;
72404;SDS011;60395;52.020;113.548;2022-10-16T03:45:23;2.03;;;0.90;;
72404;SDS011;60395;52.020;113.548;2022-10-16T03:48:26;2.03;;;0.80;;
72404;SDS011;60395;52.020;113.548;2022-10-16T03:51:29;4.13;;;1.20;;
72404;SDS011;60395;52.020;113.548;2022-10-16T03:54:33;3.00;;;1.30;;
72404;SDS011;60395;52.020;113.548;2022-10-16T03:57:36;3.40;;;1.10;;
72404;SDS011;60395;52.020;113.548;2022-10-16T04:00:43;4.40;;;0.93;;
72404;SDS011;60395;52.020;113.548;2022-10-16T04:03:47;1.95;;;1.13;;
72404;SDS011;60395;52.020;113.548;2022-10-16T04:06:50;3.05;;;1.38;;
72404;SDS011;60395;52.020;113.548;2022-10-16T04:09:53;8.80;;;1.42;;
72404;SDS011;60395;52.020;113.548;2022-10-16T04:12:56;1.75;;;0.80;;
72404;SDS011;60395;52.020;113.548;2022-10-16T04:16:00;1.95;;;1.02;;
72404;SDS011;60395;52.020;113.548;2022-10-16T04:19:03;3.35;;;1.38;;
72404;SDS011;60395;52.020;113.548;2022-10-16T04:22:06;2.92;;;1.40;;
72404;SDS011;60395;52.020;113.548;2022-10-16T04:25:09;1.50;;;0.77;;
72404;SDS011;60395;52.020;113.548;2022-10-16T04:28:14;1.52;;;0.90;;
72404;SDS011;60395;52.020;113.548;2022-10-16T04:31:17;2.50;;;0.98;;
72404;SDS011;60395;52.020;113.548;2022-10-16T04:34:20;3.40;;;1.25;;
72404;SDS011;60395;52.020;113.548;2022-10-16T04:37:24;1.50;;;0.80;;
72404;SDS011;60395;52.020;113.548;2022-10-16T04:40:28;1.02;;;0.73;;
72404;SDS011;60395;52.020;113.548;2022-10-16T04:43:35;1.58;;;0.80;;
72404;SDS011;60395;52.020;113.548;2022-10-16T04:46:38;2.42;;;1.60;;
72404;SDS011;60395;52.020;113.548;2022-10-16T04:49:41;2.85;;;1.52;;
72404;SDS011;60395;52.020;113.548;2022-10-16T04:52:44;5.70;;;1.55;;
72404;SDS011;60395;52.020;113.548;2022-10-16T04:55:47;2.85;;;1.05;;
72404;SDS011;60395;52.020;113.548;2022-10-16T04:58:51;2.50;;;1.40;;
72404;SDS011;60395;52.020;113.548;2022-10-16T05:01:54;3.65;;;1.42;;
72404;SDS011;60395;52.020;113.548;2022-10-16T05:04:56;2.05;;;1.13;;
72404;SDS011;60395;52.020;113.548;2022-10-16T05:08:00;5.85;;;1.58;;
72404;SDS011;60395;52.020;113.548;2022-10-16T05:11:03;3.45;;;1.88;;
72404;SDS011;60395;52.020;113.548;2022-10-16T05:14:06;4.20;;;2.63;;
72404;SDS011;60395;52.020;113.548;2022-10-16T05:17:09;5.43;;;2.55;;
72404;SDS011;60395;52.020;113.548;2022-10-16T05:20:12;3.15;;;1.67;;
72404;SDS011;60395;52.020;113.548;2022-10-16T05:23:15;5.72;;;1.90;;
72404;SDS011;60395;52.020;113.548;2022-10-16T05:26:18;4.63;;;1.63;;
72404;SDS011;60395;52.020;113.548;2022-10-16T05:29:21;3.10;;;1.48;;
72404;SDS011;60395;52.020;113.548;2022-10-16T05:32:24;4.00;;;2.20;;
72404;SDS011;60395;52.020;113.548;2022-10-16T05:35:28;4.40;;;1.30;;
72404;SDS011;60395;52.020;113.548;2022-10-16T05:38:31;2.45;;;1.10;;
72404;SDS011;60395;52.020;113.548;2022-10-16T05:41:34;3.08;;;1.33;;
72404;SDS011;60395;52.020;113.548;2022-10-16T05:44:37;2.65;;;1.17;;
72404;SDS011;60395;52.020;113.548;2022-10-16T05:47:40;4.47;;;2.35;;
72404;SDS011;60395;52.020;113.548;2022-10-16T05:50:43;3.88;;;2.08;;
72404;SDS011;60395;52.020;113.548;2022-10-16T06:01:17;1.92;;;1.10;;
72404;SDS011;60395;52.020;113.548;2022-10-16T06:04:21;2.92;;;1.10;;
72404;SDS011;60395;52.020;113.548;2022-10-16T06:07:24;1.27;;;0.80;;
72404;SDS011;60395;52.020;113.548;2022-10-16T06:10:28;1.48;;;0.80;;
72404;SDS011;60395;52.020;113.548;2022-10-16T06:13:31;3.05;;;0.95;;
72404;SDS011;60395;52.020;113.548;2022-10-16T06:16:35;1.13;;;0.70;;
72404;SDS011;60395;52.020;113.548;2022-10-16T06:19:38;2.10;;;0.93;;
72404;SDS011;60395;52.020;113.548;2022-10-16T06:22:42;2.38;;;1.00;;
72404;SDS011;60395;52.020;113.548;2022-10-16T06:25:45;6.85;;;1.85;;
72404;SDS011;60395;52.020;113.548;2022-10-16T06:28:48;3.25;;;1.20;;
72404;SDS011;60395;52.020;113.548;2022-10-16T06:31:52;1.17;;;0.80;;
72404;SDS011;60395;52.020;113.548;2022-10-16T06:34:55;4.18;;;1.00;;
72404;SDS011;60395;52.020;113.548;2022-10-16T06:37:58;14.02;;;1.42;;
72404;SDS011;60395;52.020;113.548;2022-10-16T06:41:02;3.83;;;0.93;;
72404;SDS011;60395;52.020;113.548;2022-10-16T06:44:06;4.10;;;1.35;;
72404;SDS011;60395;52.020;113.548;2022-10-16T06:47:10;8.77;;;1.00;;
72404;SDS011;60395;52.020;113.548;2022-10-16T06:50:13;2.33;;;1.15;;
72404;SDS011;60395;52.020;113.548;2022-10-16T06:53:16;3.65;;;1.05;;
72404;SDS011;60395;52.020;113.548;2022-10-16T06:56:20;2.80;;;1.10;;
72404;SDS011;60395;52.020;113.548;2022-10-16T06:59:24;1.05;;;0.70;;
72404;SDS011;60395;52.020;113.548;2022-10-16T07:02:27;5.40;;;0.90;;
72404;SDS011;60395;52.020;113.548;2022-10-16T07:05:31;1.15;;;0.57;;
72404;SDS011;60395;52.020;113.548;2022-10-16T07:08:34;1.60;;;0.95;;
72404;SDS011;60395;52.020;113.548;2022-10-16T07:11:39;2.55;;;0.98;;
72404;SDS011;60395;52.020;113.548;2022-10-16T07:14:43;1.80;;;0.80;;
72404;SDS011;60395;52.020;113.548;2022-10-16T07:17:46;2.58;;;1.30;;
72404;SDS011;60395;52.020;113.548;2022-10-16T07:20:49;1.48;;;0.70;;
72404;SDS011;60395;52.020;113.548;2022-10-16T07:23:53;5.00;;;1.63;;
72404;SDS011;60395;52.020;113.548;2022-10-16T07:26:57;12.10;;;1.23;;
72404;SDS011;60395;52.020;113.548;2022-10-16T07:30:00;5.13;;;1.30;;
72404;SDS011;60395;52.020;113.548;2022-10-16T07:33:09;1.33;;;0.50;;
72404;SDS011;60395;52.020;113.548;2022-10-16T07:36:12;0.90;;;0.60;;
72404;SDS011;60395;52.020;113.548;2022-10-16T07:39:17;4.80;;;1.25;;
72404;SDS011;60395;52.020;113.548;2022-10-16T07:42:20;2.17;;;1.02;;
72404;SDS011;60395;52.020;113.548;2022-10-16T07:45:23;4.70;;;1.33;;
72404;SDS011;60395;52.020;113.548;2022-10-16T07:48:27;2.63;;;1.13;;
72404;SDS011;60395;52.020;113.548;2022-10-16T07:51:32;1.70;;;0.90;;
72404;SDS011;60395;52.020;113.548;2022-10-16T07:54:35;5.15;;;2.25;;
72404;SDS011;60395;52.020;113.548;2022-10-16T07:57:38;8.13;;;2.70;;
72404;SDS011;60395;52.020;113.548;2022-10-16T08:00:41;3.55;;;0.85;;
72404;SDS011;60395;52.020;113.548;2022-10-16T08:03:45;1.77;;;0.82;;
72404;SDS011;60395;52.020;113.548;2022-10-16T08:06:49;4.68;;;1.15;;
72404;SDS011;60395;52.020;113.548;2022-10-16T08:09:54;6.65;;;1.30;;
72404;SDS011;60395;52.020;113.548;2022-10-16T08:12:58;1.00;;;0.55;;
72404;SDS011;60395;52.020;113.548;2022-10-16T08:16:02;2.40;;;1.20;;
72404;SDS011;60395;52.020;113.548;2022-10-16T08:19:10;9.18;;;2.50;;
72404;SDS011;60395;52.020;113.548;2022-10-16T08:22:16;4.13;;;1.70;;
72404;SDS011;60395;52.020;113.548;2022-10-16T08:25:19;9.95;;;2.00;;
72404;SDS011;60395;52.020;113.548;2022-10-16T08:28:23;7.35;;;3.40;;
72404;SDS011;60395;52.020;113.548;2022-10-16T08:31:26;7.03;;;2.10;;
72404;SDS011;60395;52.020;113.548;2022-10-16T08:34:30;8.23;;;1.90;;
72404;SDS011;60395;52.020;113.548;2022-10-16T08:37:33;2.40;;;1.42;;
72404;SDS011;60395;52.020;113.548;2022-10-16T08:40:37;2.30;;;1.08;;
72404;SDS011;60395;52.020;113.548;2022-10-16T08:50:25;5.30;;;2.60;;
72404;SDS011;60395;52.020;113.548;2022-10-16T08:53:31;7.72;;;2.08;;
72404;SDS011;60395;52.020;113.548;2022-10-16T08:56:40;6.13;;;3.30;;
72404;SDS011;60395;52.020;113.548;2022-10-16T08:59:43;7.93;;;3.90;;
72404;SDS011;60395;52.020;113.548;2022-10-16T09:06:17;8.38;;;3.75;;
72404;SDS011;60395;52.020;113.548;2022-10-16T09:19:46;8.05;;;3.50;;
72404;SDS011;60395;52.020;113.548;2022-10-16T09:26:12;9.82;;;3.45;;
72404;SDS011;60395;52.020;113.548;2022-10-16T09:29:18;8.73;;;4.03;;
72404;SDS011;60395;52.020;113.548;2022-10-16T09:32:24;14.85;;;4.40;;
72404;SDS011;60395;52.020;113.548;2022-10-16T09:35:31;15.00;;;4.90;;
72404;SDS011;60395;52.020;113.548;2022-10-16T09:38:38;13.32;;;5.03;;
72404;SDS011;60395;52.020;113.548;2022-10-16T09:41:42;16.20;;;5.50;;
72404;SDS011;60395;52.020;113.548;2022-10-16T09:44:50;11.35;;;4.28;;
72404;SDS011;60395;52.020;113.548;2022-10-16T09:47:55;11.10;;;4.97;;
72404;SDS011;60395;52.020;113.548;2022-10-16T09:51:00;62.78;;;26.05;;
72404;SDS011;60395;52.020;113.548;2022-10-16T09:57:12;16.90;;;6.88;;
72404;SDS011;60395;52.020;113.548;2022-10-16T10:00:16;20.05;;;8.00;;
72404;SDS011;60395;52.020;113.548;2022-10-16T10:03:39;24.73;;;9.90;;
72404;SDS011;60395;52.020;113.548;2022-10-16T10:06:45;21.50;;;8.82;;
72404;SDS011;60395;52.020;113.548;2022-10-16T10:09:50;26.73;;;8.50;;
72404;SDS011;60395;52.020;113.548;2022-10-16T10:12:55;30.15;;;10.32;;
72404;SDS011;60395;52.020;113.548;2022-10-16T10:15:59;28.48;;;10.50;;
72404;SDS011;60395;52.020;113.548;2022-10-16T10:19:02;21.67;;;8.65;;
72404;SDS011;60395;52.020;113.548;2022-10-16T10:39:00;42.65;;;13.50;;
72404;SDS011;60395;52.020;113.548;2022-10-16T10:45:44;37.30;;;10.07;;
72404;SDS011;60395;52.020;113.548;2022-10-16T10:49:03;26.25;;;8.77;;
72404;SDS011;60395;52.020;113.548;2022-10-16T10:55:54;24.13;;;11.25;;
72404;SDS011;60395;52.020;113.548;2022-10-16T11:02:59;33.90;;;15.73;;
72404;SDS011;60395;52.020;113.548;2022-10-16T11:09:34;27.27;;;10.75;;
72404;SDS011;60395;52.020;113.548;2022-10-16T11:12:44;32.20;;;13.68;;
72404;SDS011;60395;52.020;113.548;2022-10-16T11:15:54;26.90;;;11.90;;
72404;SDS011;60395;52.020;113.548;2022-10-16T11:19:12;23.92;;;7.72;;
72404;SDS011;60395;52.020;113.548;2022-10-16T11:25:36;17.60;;;6.15;;
72404;SDS011;60395;52.020;113.548;2022-10-16T11:32:04;7.55;;;2.42;;
72404;SDS011;60395;52.020;113.548;2022-10-16T11:35:16;5.47;;;2.50;;
72404;SDS011;60395;52.020;113.548;2022-10-16T11:45:20;8.40;;;4.22;;
72404;SDS011;60395;52.020;113.548;2022-10-16T11:48:41;4.75;;;2.35;;
72404;SDS011;60395;52.020;113.548;2022-10-16T11:55:37;2.78;;;1.40;;
72404;SDS011;60395;52.020;113.548;2022-10-16T11:59:32;3.15;;;1.63;;
72404;SDS011;60395;52.020;113.548;2022-10-16T12:06:25;3.03;;;1.55;;
72404;SDS011;60395;52.020;113.548;2022-10-16T12:09:34;8.98;;;2.25;;
72404;SDS011;60395;52.020;113.548;2022-10-16T12:12:41;7.22;;;2.60;;
72404;SDS011;60395;52.020;113.548;2022-10-16T12:15:44;9.40;;;2.53;;
72404;SDS011;60395;52.020;113.548;2022-10-16T12:19:09;7.45;;;2.50;;
72404;SDS011;60395;52.020;113.548;2022-10-16T12:22:15;6.53;;;2.30;;
72404;SDS011;60395;52.020;113.548;2022-10-16T12:28:27;4.90;;;2.03;;
72404;SDS011;60395;52.020;113.548;2022-10-16T12:31:43;5.22;;;2.45;;
72404;SDS011;60395;52.020;113.548;2022-10-16T12:34:59;5.85;;;2.38;;
72404;SDS011;60395;52.020;113.548;2022-10-16T12:38:07;10.18;;;3.35;;
72404;SDS011;60395;52.020;113.548;2022-10-16T12:44:37;4.78;;;2.10;;
72404;SDS011;60395;52.020;113.548;2022-10-16T12:47:47;3.50;;;1.98;;
72404;SDS011;60395;52.020;113.548;2022-10-16T12:50:53;5.15;;;2.28;;
72404;SDS011;60395;52.020;113.548;2022-10-16T12:54:03;7.60;;;2.78;;
72404;SDS011;60395;52.020;113.548;2022-10-16T13:17:29;7.85;;;3.13;;
72404;SDS011;60395;52.020;113.548;2022-10-16T13:20:47;10.70;;;3.83;;
72404;SDS011;60395;52.020;113.548;2022-10-16T13:30:45;17.85;;;7.47;;
72404;SDS011;60395;52.020;113.548;2022-10-16T13:33:56;10.57;;;3.40;;
72404;SDS011;60395;52.020;113.548;2022-10-16T13:37:01;9.60;;;2.72;;
72404;SDS011;60395;52.020;113.548;2022-10-16T13:40:18;7.63;;;2.72;;
72404;SDS011;60395;52.020;113.548;2022-10-16T13:43:46;5.00;;;2.55;;
72404;SDS011;60395;52.020;113.548;2022-10-16T13:47:00;9.55;;;2.20;;
72404;SDS011;60395;52.020;113.548;2022-10-16T13:50:09;5.75;;;2.10;;
72404;SDS011;60395;52.020;113.548;2022-10-16T13:53:16;4.57;;;1.38;;
72404;SDS011;60395;52.020;113.548;2022-10-16T13:56:21;2.33;;;1.40;;
72404;SDS011;60395;52.020;113.548;2022-10-16T13:59:26;16.75;;;9.50;;
72404;SDS011;60395;52.020;113.548;2022-10-16T14:02:36;6.43;;;3.10;;
72404;SDS011;60395;52.020;113.548;2022-10-16T14:05:56;6.53;;;2.60;;
72404;SDS011;60395;52.020;113.548;2022-10-16T14:09:14;4.32;;;2.42;;
72404;SDS011;60395;52.020;113.548;2022-10-16T14:12:21;3.40;;;1.85;;
72404;SDS011;60395;52.020;113.548;2022-10-16T14:15:30;3.65;;;1.92;;
72404;SDS011;60395;52.020;113.548;2022-10-16T14:18:34;3.50;;;1.77;;
72404;SDS011;60395;52.020;113.548;2022-10-16T14:21:40;3.78;;;1.73;;
72404;SDS011;60395;52.020;113.548;2022-10-16T14:24:43;2.83;;;1.70;;
72404;SDS011;60395;52.020;113.548;2022-10-16T14:28:13;3.90;;;1.50;;
72404;SDS011;60395;52.020;113.548;2022-10-16T14:34:32;6.05;;;2.53;;
72404;SDS011;60395;52.020;113.548;2022-10-16T14:37:37;29.77;;;10.45;;
72404;SDS011;60395;52.020;113.548;2022-10-16T14:40:45;6.13;;;3.03;;
72404;SDS011;60395;52.020;113.548;2022-10-16T14:43:51;5.28;;;2.20;;
72404;SDS011;60395;52.020;113.548;2022-10-16T14:46:57;5.13;;;2.20;;
72404;SDS011;60395;52.020;113.548;2022-10-16T14:50:03;7.20;;;2.08;;
72404;SDS011;60395;52.020;113.548;2022-10-16T14:53:13;4.78;;;1.65;;
72404;SDS011;60395;52.020;113.548;2022-10-16T14:56:18;3.85;;;1.50;;
72404;SDS011;60395;52.020;113.548;2022-10-16T14:59:33;4.90;;;2.05;;
72404;SDS011;60395;52.020;113.548;2022-10-16T15:02:40;2.05;;;1.17;;
72404;SDS011;60395;52.020;113.548;2022-10-16T15:05:44;4.20;;;1.42;;
72404;SDS011;60395;52.020;113.548;2022-10-16T15:08:47;2.97;;;1.00;;
72404;SDS011;60395;52.020;113.548;2022-10-16T15:11:50;3.83;;;1.40;;
72404;SDS011;60395;52.020;113.548;2022-10-16T15:14:54;21.27;;;9.65;;
72404;SDS011;60395;52.020;113.548;2022-10-16T15:17:57;12.43;;;6.30;;
72404;SDS011;60395;52.020;113.548;2022-10-16T15:21:02;3.13;;;1.58;;
72404;SDS011;60395;52.020;113.548;2022-10-16T15:24:08;5.28;;;1.48;;
72404;SDS011;60395;52.020;113.548;2022-10-16T15:27:20;2.72;;;1.40;;
72404;SDS011;60395;52.020;113.548;2022-10-16T15:30:23;2.22;;;1.15;;
72404;SDS011;60395;52.020;113.548;2022-10-16T15:33:27;2.75;;;1.38;;
72404;SDS011;60395;52.020;113.548;2022-10-16T15:36:40;3.13;;;1.42;;
72404;SDS011;60395;52.020;113.548;2022-10-16T15:39:44;2.92;;;1.40;;
72404;SDS011;60395;52.020;113.548;2022-10-16T15:42:47;2.47;;;1.17;;
72404;SDS011;60395;52.020;113.548;2022-10-16T15:46:04;20.10;;;9.73;;
72404;SDS011;60395;52.020;113.548;2022-10-16T15:49:12;4.50;;;2.08;;
72404;SDS011;60395;52.020;113.548;2022-10-16T15:52:15;2.63;;;1.50;;
72404;SDS011;60395;52.020;113.548;2022-10-16T15:55:19;5.18;;;2.10;;
72404;SDS011;60395;52.020;113.548;2022-10-16T15:58:22;5.20;;;2.60;;
72404;SDS011;60395;52.020;113.548;2022-10-16T16:01:25;8.15;;;3.45;;
72404;SDS011;60395;52.020;113.548;2022-10-16T16:04:29;13.13;;;5.00;;
72404;SDS011;60395;52.020;113.548;2022-10-16T16:07:45;6.63;;;2.67;;
72404;SDS011;60395;52.020;113.548;2022-10-16T16:10:59;8.90;;;2.75;;
72404;SDS011;60395;52.020;113.548;2022-10-16T16:14:09;5.32;;;2.13;;
72404;SDS011;60395;52.020;113.548;2022-10-16T16:17:15;6.03;;;2.13;;
72404;SDS011;60395;52.020;113.548;2022-10-16T16:20:18;4.78;;;2.47;;
72404;SDS011;60395;52.020;113.548;2022-10-16T16:23:21;10.85;;;3.08;;
72404;SDS011;60395;52.020;113.548;2022-10-16T16:26:25;4.65;;;2.28;;
72404;SDS011;60395;52.020;113.548;2022-10-16T16:29:36;13.43;;;6.28;;
72404;SDS011;60395;52.020;113.548;2022-10-16T16:32:39;11.52;;;5.18;;
72404;SDS011;60395;52.020;113.548;2022-10-16T16:35:42;4.72;;;2.03;;
72404;SDS011;60395;52.020;113.548;2022-10-16T16:38:45;2.85;;;1.45;;
72404;SDS011;60395;52.020;113.548;2022-10-16T16:41:49;3.20;;;1.80;;
72404;SDS011;60395;52.020;113.548;2022-10-16T16:44:53;4.57;;;1.90;;
72404;SDS011;60395;52.020;113.548;2022-10-16T16:47:56;4.03;;;1.98;;
72404;SDS011;60395;52.020;113.548;2022-10-16T16:54:09;4.43;;;1.90;;
72404;SDS011;60395;52.020;113.548;2022-10-16T16:57:15;5.50;;;2.05;;
72404;SDS011;60395;52.020;113.548;2022-10-16T17:00:19;5.28;;;1.90;;
72404;SDS011;60395;52.020;113.548;2022-10-16T17:03:24;4.55;;;1.70;;
72404;SDS011;60395;52.020;113.548;2022-10-16T17:06:27;3.80;;;1.50;;
72404;SDS011;60395;52.020;113.548;2022-10-16T17:09:34;3.78;;;1.33;;
72404;SDS011;60395;52.020;113.548;2022-10-16T17:12:37;3.40;;;1.40;;
72404;SDS011;60395;52.020;113.548;2022-10-16T17:15:45;4.38;;;1.77;;
72404;SDS011;60395;52.020;113.548;2022-10-16T17:18:49;3.78;;;1.67;;
72404;SDS011;60395;52.020;113.548;2022-10-16T17:21:52;2.85;;;1.10;;
72404;SDS011;60395;52.020;113.548;2022-10-16T17:24:57;1.95;;;1.05;;
72404;SDS011;60395;52.020;113.548;2022-10-16T17:28:00;2.85;;;1.02;;
72404;SDS011;60395;52.020;113.548;2022-10-16T17:31:07;2.45;;;1.30;;
72404;SDS011;60395;52.020;113.548;2022-10-16T17:34:11;1.67;;;0.90;;
72404;SDS011;60395;52.020;113.548;2022-10-16T17:37:15;2.33;;;1.00;;
72404;SDS011;60395;52.020;113.548;2022-10-16T17:40:20;4.03;;;1.20;;
72404;SDS011;60395;52.020;113.548;2022-10-16T17:43:23;3.13;;;1.20;;
72404;SDS011;60395;52.020;113.548;2022-10-16T17:46:26;2.58;;;1.27;;
72404;SDS011;60395;52.020;113.548;2022-10-16T17:49:29;5.28;;;2.83;;
72404;SDS011;60395;52.020;113.548;2022-10-16T17:52:33;2.67;;;1.20;;
72404;SDS011;60395;52.020;113.548;2022-10-16T17:55:36;3.10;;;1.10;;
72404;SDS011;60395;52.020;113.548;2022-10-16T17:58:41;4.18;;;1.55;;
72404;SDS011;60395;52.020;113.548;2022-10-16T18:01:49;4.20;;;1.38;;
72404;SDS011;60395;52.020;113.548;2022-10-16T18:04:52;2.28;;;1.20;;
72404;SDS011;60395;52.020;113.548;2022-10-16T18:07:57;2.38;;;1.08;;
72404;SDS011;60395;52.020;113.548;2022-10-16T18:11:01;4.20;;;1.73;;
72404;SDS011;60395;52.020;113.548;2022-10-16T18:14:05;2.50;;;1.20;;
72404;SDS011;60395;52.020;113.548;2022-10-16T18:17:08;2.97;;;1.20;;
72404;SDS011;60395;52.020;113.548;2022-10-16T18:20:11;2.63;;;1.00;;
72404;SDS011;60395;52.020;113.548;2022-10-16T18:23:14;1.85;;;0.90;;
72404;SDS011;60395;52.020;113.548;2022-10-16T18:26:18;1.60;;;0.73;;
72404;SDS011;60395;52.020;113.548;2022-10-16T18:29:23;2.00;;;0.90;;
72404;SDS011;60395;52.020;113.548;2022-10-16T18:32:27;2.40;;;0.90;;
72404;SDS011;60395;52.020;113.548;2022-10-16T18:35:33;1.67;;;0.95;;
72404;SDS011;60395;52.020;113.548;2022-10-16T18:38:37;1.80;;;1.00;;
72404;SDS011;60395;52.020;113.548;2022-10-16T18:41:41;1.55;;;0.90;;
72404;SDS011;60395;52.020;113.548;2022-10-16T18:44:46;1.83;;;0.85;;
72404;SDS011;60395;52.020;113.548;2022-10-16T18:47:53;2.67;;;0.98;;
72404;SDS011;60395;52.020;113.548;2022-10-16T18:51:12;1.50;;;0.65;;
72404;SDS011;60395;52.020;113.548;2022-10-16T18:54:18;11.90;;;1.38;;
72404;SDS011;60395;52.020;113.548;2022-10-16T18:57:23;4.03;;;1.63;;
72404;SDS011;60395;52.020;113.548;2022-10-16T19:00:27;5.90;;;1.50;;
72404;SDS011;60395;52.020;113.548;2022-10-16T19:03:31;1.70;;;1.10;;
72404;SDS011;60395;52.020;113.548;2022-10-16T19:06:36;2.17;;;0.93;;
72404;SDS011;60395;52.020;113.548;2022-10-16T19:09:40;1.08;;;0.68;;
72404;SDS011;60395;52.020;113.548;2022-10-16T19:12:43;2.72;;;1.10;;
72404;SDS011;60395;52.020;113.548;2022-10-16T19:15:46;2.60;;;1.02;;
72404;SDS011;60395;52.020;113.548;2022-10-16T19:19:00;1.23;;;0.82;;
72404;SDS011;60395;52.020;113.548;2022-10-16T19:22:04;1.42;;;0.80;;
72404;SDS011;60395;52.020;113.548;2022-10-16T19:25:18;0.95;;;0.60;;
72404;SDS011;60395;52.020;113.548;2022-10-16T19:28:24;5.55;;;0.70;;
72404;SDS011;60395;52.020;113.548;2022-10-16T19:31:28;0.95;;;0.60;;
72404;SDS011;60395;52.020;113.548;2022-10-16T19:34:31;1.60;;;0.65;;
72404;SDS011;60395;52.020;113.548;2022-10-16T19:37:35;0.90;;;0.60;;
72404;SDS011;60395;52.020;113.548;2022-10-16T19:40:38;0.95;;;0.60;;
72404;SDS011;60395;52.020;113.548;2022-10-16T19:43:42;1.15;;;0.68;;
72404;SDS011;60395;52.020;113.548;2022-10-16T19:46:46;1.20;;;0.80;;
72404;SDS011;60395;52.020;113.548;2022-10-16T19:49:51;1.33;;;0.60;;
72404;SDS011;60395;52.020;113.548;2022-10-16T19:52:54;1.30;;;0.60;;
72404;SDS011;60395;52.020;113.548;2022-10-16T19:55:57;33.88;;;1.30;;
72404;SDS011;60395;52.020;113.548;2022-10-16T19:59:01;1.00;;;0.60;;
72404;SDS011;60395;52.020;113.548;2022-10-16T20:02:08;1.85;;;0.90;;
72404;SDS011;60395;52.020;113.548;2022-10-16T20:05:13;1.88;;;0.90;;
72404;SDS011;60395;52.020;113.548;2022-10-16T20:08:16;2.00;;;0.90;;
72404;SDS011;60395;52.020;113.548;2022-10-16T20:11:21;2.70;;;0.98;;
72404;SDS011;60395;52.020;113.548;2022-10-16T20:14:30;2.20;;;1.05;;
72404;SDS011;60395;52.020;113.548;2022-10-16T20:17:33;1.77;;;1.00;;
72404;SDS011;60395;52.020;113.548;2022-10-16T20:20:36;12.60;;;1.45;;
72404;SDS011;60395;52.020;113.548;2022-10-16T20:23:40;4.35;;;1.70;;
72404;SDS011;60395;52.020;113.548;2022-10-16T20:26:43;2.78;;;1.30;;
72404;SDS011;60395;52.020;113.548;2022-10-16T20:29:46;2.22;;;1.13;;